South Coast: Past 24 Hour Conditions

 

Winterland

10:30 PM NST 04 March 2015
Disclaimer

This table is a summary of hourly weather conditions for the past 24 hours.
Please note that these observations might not always be representative of weather conditions over their associated marine area.

Date / Time
(NST)
Wind(knots) Conditions Visibility(km) Pressure(kPa) Air tempC) Relative humidity(%) Dew pointC) Wind Chill
04 March 2015
22:30 W 29 gust 41 Light Snow 15 99.7 -1 80 -4 -10
21:30 W 28 gust 35 N/A 15 99.5 0 85 -3 -9
20:30 W 25 gust 38 Light Precipitation 15 99.4 0 92 -1 *
19:30 W 28 gust 37 Light Precipitation 15 99.2 1 91 0 *
18:30 WSW 29 gust 37 N/A 8 99.0 2 95 1 *
17:30 SW 26 gust 33 N/A 2 98.9 3 97 3 *
16:30 SE 22 gust 28 Light Rain 2 99.2 -1 94 -1 -8
15:30 SE 25 gust 35 Light Snow 0.3 99.5 -3 96 -3 -12
14:30 SE 21 gust 28 Light Snow 0.3 99.9 -4 93 -5 -13
13:30 SSE 17 gust 22 Light Snow 0.6 100.5 -5 91 -6 -13
12:30 SSE 13 gust 20 Light Snow 1 100.8 -6 84 -8 -13
11:30 S 13 gust 20 N/A 8 101.1 -5 75 -9 -12
10:30 SSW 8 N/A 8 101.4 -6 70 -11 -12
9:30 SW 11 N/A 15 101.5 -7 68 -12 -14
8:30 SW 9 N/A 11 101.6 -8 79 -11 -15
7:30 SW 6 N/A 15 101.6 -8 71 -13 -13
6:30 WSW 8 N/A 15 101.5 -9 71 -13 -15
5:30 W 13 N/A 15 101.5 -9 71 -13 -17
4:30 W 12 gust 17 N/A 13 101.5 -9 71 -13 -17
3:30 WNW 14 gust 24 N/A 15 101.5 -9 69 -14 -18
2:30 W 18 N/A 15 101.4 -10 72 -14 -20
1:30 W 16 N/A 15 101.3 -10 74 -14 -20
0:30 WNW 15 gust 20 N/A 15 101.2 -11 69 -15 -20
03 March 2015
23:30 WNW 19 gust 28 N/A 15 101.1 -11 70 -15 -21
22:30 WNW 23 gust 29 N/A 15 101.0 -11 70 -15 -22

Zoom-in to make a selection

Map of Atlantic - Newfoundland marine weather areas Southwestern Grand Banks - 44138 Banquereau - 44139 Tail of the Bank - 44140 Nickerson Bank - 44251 Northeast Burgeo Bank - 44255 Blanc-Sablon Airport Cap Whittle Chevery Natashquan Airport Heath Point Miscou Island Grand Étang Ingonish Beach North Mountain St.Paul Island J.A. Douglas McCurdy Sydney Airport Charlottetown Airport East Point North Cape Argentia Bonavista Burgeo Cape Race Corner Brook Daniel's Harbour Englee Ferolle Point La Scie Port aux Basques Rocky Harbour Sagona Island St. Anthony Airport St. John's Int'l Airport St. Lawrence Stephenville Airport Twillingate Winterland Wreckhouse Cartwright Airport Mary's Harbour Grates Cove Pool's Island Marticot Island Long Pond Îles de la Madeleine Airport
Legend:
buoy Buoy
land station Land Station

Atlantic - Newfoundland Area

Another Region

What we are doing

Date modified: